Time;durP1;ratioP1;P1;durP2;ratioP2;P2;SDS_P1;SDS_P2;PMS_P1;PMS_P2;Temp;Humidity;BMP_temperature;BMP_pressure;BME280_temperature;BME280_humidity;BME280_pressure;Samples;Min_cycle;Max_cycle;Signal;HPM_P1;HPM_P2
2021/05/10 00:01:54;;;;;;;1.23;1.13;;;;;;;16.60;42.15;94635.28;5055488;28;20220;-81
2021/05/10 00:04:19;;;;;;;1.60;1.45;;;;;;;16.67;42.02;94630.84;5055773;28;20183;-82
2021/05/10 00:06:44;;;;;;;1.95;1.00;;;;;;;16.72;42.05;94632.88;5072211;28;20548;-79
2021/05/10 00:09:09;;;;;;;1.90;1.02;;;;;;;16.81;41.94;94641.31;5055541;28;20543;-82
2021/05/10 00:11:35;;;;;;;2.45;1.40;;;;;;;16.77;41.75;94637.47;5072062;28;20246;-79
2021/05/10 00:14:05;;;;;;;2.25;1.38;;;;;;;16.78;41.88;94633.84;5055923;28;20236;-80
2021/05/10 00:16:30;;;;;;;1.30;1.10;;;;;;;16.65;42.27;94630.25;5072522;28;20288;-80
2021/05/10 00:18:56;;;;;;;3.90;1.40;;;;;;;16.59;42.69;94635.50;5072668;28;20693;-80
2021/05/10 00:21:21;;;;;;;2.90;1.13;;;;;;;16.55;42.85;94629.06;5072081;28;20242;-82
2021/05/10 00:23:46;;;;;;;1.75;1.20;;;;;;;16.52;42.90;94627.69;5071660;28;20180;-82
2021/05/10 00:26:11;;;;;;;2.78;1.50;;;;;;;16.55;42.64;94626.44;5055140;28;20179;-82
2021/05/10 00:28:37;;;;;;;2.42;1.48;;;;;;;16.44;42.78;94620.03;5072075;28;20166;-82
2021/05/10 00:31:02;;;;;;;1.25;1.15;;;;;;;16.52;42.65;94608.50;5071414;28;20471;-79
2021/05/10 00:33:27;;;;;;;2.60;1.33;;;;;;;16.51;42.54;94620.81;5071759;28;20181;-80
2021/05/10 00:35:53;;;;;;;1.67;1.30;;;;;;;16.43;42.54;94611.38;5071904;28;20205;-81
2021/05/10 00:38:18;;;;;;;2.15;1.23;;;;;;;16.26;43.48;94612.03;5055161;28;20180;-82
2021/05/10 00:40:43;;;;;;;2.22;1.50;;;;;;;16.25;43.49;94610.38;5071927;28;20291;-80
2021/05/10 00:43:09;;;;;;;1.50;1.30;;;;;;;16.22;43.16;94601.13;5073094;28;20226;-81
2021/05/10 00:45:34;;;;;;;3.42;1.40;;;;;;;16.14;43.72;94603.97;5072391;28;20223;-80
2021/05/10 00:48:00;;;;;;;1.55;1.40;;;;;;;16.12;43.64;94604.19;5055203;28;20283;-80
2021/05/10 00:50:26;;;;;;;1.42;1.20;;;;;;;16.08;43.67;94600.38;5071917;28;20180;-80
2021/05/10 00:52:51;;;;;;;2.65;1.10;;;;;;;16.09;44.09;94601.97;5072013;28;20201;-80
2021/05/10 00:55:17;;;;;;;1.58;1.30;;;;;;;16.09;43.85;94595.94;5071735;28;20205;-82
2021/05/10 00:57:52;;;;;;;2.50;1.42;;;;;;;16.11;43.57;94594.72;5054753;28;20177;-82
2021/05/10 01:00:19;;;;;;;1.83;1.25;;;;;;;16.03;44.09;94591.50;5054340;28;20540;-82
2021/05/10 01:02:45;;;;;;;1.13;1.02;;;;;;;16.06;43.81;94593.72;5071200;28;20180;-82
2021/05/10 01:05:11;;;;;;;4.10;1.50;;;;;;;16.04;43.71;94593.91;5054327;28;20166;-82
2021/05/10 01:07:36;;;;;;;1.33;1.13;;;;;;;16.08;43.24;94596.94;5071259;28;20173;-82
2021/05/10 01:10:06;;;;;;;1.65;1.30;;;;;;;16.09;42.72;94595.94;5054257;28;20173;-81
2021/05/10 01:12:31;;;;;;;1.40;1.30;;;;;;;16.07;42.65;94588.25;5072150;28;20247;-81
2021/05/10 01:14:57;;;;;;;2.35;1.08;;;;;;;16.13;41.97;94582.22;5071295;28;20205;-82
2021/05/10 01:17:22;;;;;;;1.80;1.20;;;;;;;16.10;41.87;94580.03;5054466;28;20209;-82
2021/05/10 01:19:48;;;;;;;3.38;1.73;;;;;;;16.11;41.55;94584.25;5071459;28;20173;-82
2021/05/10 01:22:15;;;;;;;2.17;1.48;;;;;;;16.17;41.09;94581.78;5054036;28;20205;-82
2021/05/10 01:24:40;;;;;;;2.28;1.30;;;;;;;16.17;41.03;94572.16;5071143;28;20520;-82
2021/05/10 01:27:05;;;;;;;2.60;1.67;;;;;;;16.23;40.66;94579.16;5070961;28;20180;-82
2021/05/10 01:29:31;;;;;;;1.70;1.47;;;;;;;16.26;40.19;94580.59;5054256;28;20663;-82
2021/05/10 01:31:56;;;;;;;3.25;1.33;;;;;;;16.29;40.13;94572.31;5053658;28;20193;-82
2021/05/10 01:34:21;;;;;;;1.83;1.50;;;;;;;16.29;39.88;94564.44;5072379;28;20219;-81
2021/05/10 01:36:47;;;;;;;2.65;1.38;;;;;;;16.34;39.80;94554.13;5070899;28;20601;-81
2021/05/10 01:39:12;;;;;;;2.50;1.30;;;;;;;16.32;39.78;94548.31;5071043;28;20692;-81
2021/05/10 01:41:38;;;;;;;1.60;1.25;;;;;;;16.42;39.48;94548.66;5054431;28;20189;-81
2021/05/10 01:44:03;;;;;;;2.15;1.30;;;;;;;16.35;39.97;94547.91;5054303;28;20268;-81
2021/05/10 01:46:28;;;;;;;2.20;1.38;;;;;;;16.36;39.75;94544.28;5072809;28;20188;-82
2021/05/10 01:48:54;;;;;;;3.65;1.40;;;;;;;16.29;39.74;94539.06;5054417;28;20648;-82
2021/05/10 01:51:25;;;;;;;2.93;1.57;;;;;;;16.18;40.30;94533.66;5072569;28;20205;-81
2021/05/10 01:53:50;;;;;;;2.97;1.38;;;;;;;16.22;40.52;94540.88;5075156;28;20177;-80
2021/05/10 01:56:16;;;;;;;2.10;1.45;;;;;;;16.15;39.90;94540.09;5075167;28;20231;-80
2021/05/10 01:58:41;;;;;;;2.03;1.33;;;;;;;16.48;38.59;94537.38;5076217;28;20607;-80
2021/05/10 02:01:06;;;;;;;2.27;1.33;;;;;;;16.43;38.95;94535.38;5077258;28;20346;-80
2021/05/10 02:03:32;;;;;;;2.08;1.35;;;;;;;16.50;38.28;94531.91;5059474;28;20592;-80
2021/05/10 02:05:57;;;;;;;2.13;1.60;;;;;;;16.39;39.39;94523.69;5059055;28;20176;-80
2021/05/10 02:08:23;;;;;;;1.87;1.40;;;;;;;16.54;38.40;94518.19;5076321;28;20177;-80
2021/05/10 02:10:50;;;;;;;4.05;1.30;;;;;;;16.50;38.40;94518.81;5058627;28;20216;-80
2021/05/10 02:13:19;;;;;;;3.60;1.40;;;;;;;16.61;38.06;94526.03;5058976;28;20181;-80
2021/05/10 02:15:48;;;;;;;3.03;1.27;;;;;;;16.61;37.64;94539.16;5075652;28;20209;-80
2021/05/10 02:18:15;;;;;;;5.78;1.40;;;;;;;16.64;38.05;94542.13;5075375;28;20226;-80
2021/05/10 02:20:41;;;;;;;3.22;1.38;;;;;;;16.50;38.67;94537.16;5058538;28;20197;-80
2021/05/10 02:23:08;;;;;;;3.97;1.20;;;;;;;16.58;38.34;94547.41;5075566;28;20173;-80
2021/05/10 02:25:35;;;;;;;2.28;1.30;;;;;;;16.48;38.74;94547.84;5076855;28;20219;-80
2021/05/10 02:28:03;;;;;;;3.08;1.42;;;;;;;16.49;38.24;94538.97;5075821;28;20464;-80
2021/05/10 02:30:29;;;;;;;2.00;1.33;;;;;;;16.51;38.97;94541.38;5075806;28;20187;-80
2021/05/10 02:32:55;;;;;;;1.38;1.27;;;;;;;16.42;39.00;94543.44;5058694;28;20212;-80
2021/05/10 02:35:21;;;;;;;1.35;1.10;;;;;;;16.48;38.53;94545.22;5057904;28;20641;-80
2021/05/10 02:37:47;;;;;;;3.03;1.40;;;;;;;16.41;38.60;94539.22;5074954;28;20222;-81
2021/05/10 02:40:14;;;;;;;2.10;1.55;;;;;;;16.42;38.58;94538.19;5058269;28;20189;-80
2021/05/10 02:42:40;;;;;;;2.53;1.60;;;;;;;16.35;38.69;94535.63;5075070;28;20491;-80
2021/05/10 02:45:06;;;;;;;1.75;1.40;;;;;;;16.31;39.04;94531.00;5058126;28;20173;-81
2021/05/10 02:47:32;;;;;;;2.00;1.37;;;;;;;16.18;39.30;94525.81;5075110;28;20271;-80
2021/05/10 02:49:57;;;;;;;2.80;1.40;;;;;;;16.24;39.02;94532.81;5058334;28;20264;-80
2021/05/10 02:52:23;;;;;;;4.15;1.48;;;;;;;16.21;38.70;94534.03;5075871;28;20235;-79
2021/05/10 02:54:48;;;;;;;2.33;1.40;;;;;;;16.19;38.81;94522.97;5076086;28;20208;-80
2021/05/10 02:57:14;;;;;;;2.78;1.20;;;;;;;16.14;38.94;94530.63;5058798;28;20235;-80
2021/05/10 02:59:39;;;;;;;2.03;1.40;;;;;;;16.15;39.07;94530.44;5075071;28;20672;-80
2021/05/10 03:02:05;;;;;;;2.77;1.80;;;;;;;16.14;38.93;94536.69;5074087;28;20679;-80
2021/05/10 03:04:30;;;;;;;4.60;1.50;;;;;;;16.09;38.80;94533.91;5057718;28;20624;-80
2021/05/10 03:06:55;;;;;;;2.45;1.35;;;;;;;16.05;38.56;94524.03;5074369;28;20215;-80
2021/05/10 03:09:21;;;;;;;3.00;1.30;;;;;;;16.13;38.67;94537.69;5057436;28;20188;-80
2021/05/10 03:11:46;;;;;;;4.37;2.10;;;;;;;16.02;38.93;94551.44;5057222;28;20225;-79
2021/05/10 03:14:11;;;;;;;2.83;1.47;;;;;;;16.05;38.72;94558.88;5057053;28;20201;-80
2021/05/10 03:16:37;;;;;;;3.90;1.80;;;;;;;16.10;38.97;94558.25;5073544;28;20516;-81
2021/05/10 03:19:08;;;;;;;3.47;1.50;;;;;;;16.12;38.97;94551.81;5057531;28;20219;-80
2021/05/10 03:21:34;;;;;;;2.37;1.40;;;;;;;16.07;39.63;94563.91;5074255;28;20274;-80
2021/05/10 03:23:59;;;;;;;4.40;1.50;;;;;;;16.15;38.89;94576.78;5057856;28;20266;-80
2021/05/10 03:26:24;;;;;;;2.45;1.23;;;;;;;16.21;38.48;94578.56;5057539;28;20177;-79
2021/05/10 03:28:50;;;;;;;1.23;1.20;;;;;;;16.22;38.99;94601.13;5073991;28;20169;-80
2021/05/10 03:31:15;;;;;;;3.00;1.75;;;;;;;16.27;38.89;94601.34;5073322;28;20641;-80
2021/05/10 03:33:40;;;;;;;4.37;1.37;;;;;;;16.48;39.73;94597.63;5073970;28;20686;-80
2021/05/10 03:36:06;;;;;;;1.98;1.40;;;;;;;16.47;39.19;94621.44;5075061;28;20244;-81
2021/05/10 03:38:31;;;;;;;2.57;1.27;;;;;;;16.52;39.17;94603.25;5074054;28;20187;-80
2021/05/10 03:40:56;;;;;;;1.47;1.27;;;;;;;16.58;38.51;94597.19;5056901;28;20240;-80
2021/05/10 03:43:22;;;;;;;2.72;1.48;;;;;;;16.63;38.04;94603.44;5073530;28;20263;-80
2021/05/10 03:45:47;;;;;;;1.70;1.17;;;;;;;16.64;37.87;94625.22;5073429;28;20192;-80
2021/05/10 03:48:12;;;;;;;3.00;1.38;;;;;;;16.76;37.92;94609.66;5073721;28;20664;-80
2021/05/10 03:50:38;;;;;;;2.42;1.25;;;;;;;16.77;37.73;94619.94;5056301;28;20562;-80
2021/05/10 03:53:03;;;;;;;3.92;1.30;;;;;;;16.79;38.33;94625.00;5057011;28;20241;-81
2021/05/10 03:55:28;;;;;;;2.22;1.23;;;;;;;16.74;37.70;94615.13;5073288;28;20201;-81
2021/05/10 03:57:55;;;;;;;2.75;1.30;;;;;;;16.74;38.03;94637.91;5074917;28;20192;-80
2021/05/10 04:00:21;;;;;;;1.38;1.10;;;;;;;16.73;38.55;94646.78;5056246;28;20177;-80
2021/05/10 04:02:46;;;;;;;3.28;1.38;;;;;;;16.88;37.96;94647.34;5056692;28;20200;-80
2021/05/10 04:08:10;;;;;;;2.08;1.30;;;;;;;16.80;38.08;94655.44;5073719;28;20212;-80
2021/05/10 04:16:06;;;;;;;2.13;1.10;;;;;;;17.12;37.48;94664.97;5073213;28;20201;-80
2021/05/10 04:18:32;;;;;;;1.40;1.27;;;;;;;17.10;39.22;94663.56;5073206;28;20178;-79
2021/05/10 04:20:58;;;;;;;2.30;1.02;;;;;;;17.05;40.40;94663.38;5072677;28;20199;-80
2021/05/10 04:23:23;;;;;;;4.70;1.48;;;;;;;16.93;40.66;94658.00;5056516;28;20216;-81
2021/05/10 04:25:53;;;;;;;2.22;1.38;;;;;;;16.89;40.77;94656.81;5072665;28;20172;-81
2021/05/10 04:28:20;;;;;;;3.70;1.35;;;;;;;16.66;41.36;94652.00;5056036;28;20177;-81
2021/05/10 04:30:48;;;;;;;1.10;1.00;;;;;;;16.62;41.55;94654.25;5055175;28;20220;-81
2021/05/10 04:33:13;;;;;;;4.47;1.17;;;;;;;16.56;41.50;94657.69;5055911;28;20648;-80
2021/05/10 04:35:39;;;;;;;3.22;1.40;;;;;;;16.45;41.73;94652.28;5072049;28;20287;-81
2021/05/10 04:38:09;;;;;;;3.45;1.50;;;;;;;16.38;42.14;94641.81;5072441;28;20177;-81
2021/05/10 04:40:38;;;;;;;2.90;1.20;;;;;;;16.30;42.32;94647.28;5072732;28;20212;-81
2021/05/10 04:43:04;;;;;;;1.40;1.05;;;;;;;16.28;42.42;94642.25;5072283;28;20230;-80
2021/05/10 04:45:29;;;;;;;3.58;1.23;;;;;;;16.34;42.56;94645.84;5056455;28;20264;-80
2021/05/10 04:47:55;;;;;;;4.35;1.23;;;;;;;16.29;42.78;94643.03;5069456;28;20177;-79
2021/05/10 04:50:20;;;;;;;3.95;1.45;;;;;;;16.31;43.33;94641.03;5066350;28;20180;-80
2021/05/10 04:52:46;;;;;;;1.73;1.10;;;;;;;16.29;43.53;94643.03;5072547;28;20675;-80
2021/05/10 04:55:12;;;;;;;6.00;1.30;;;;;;;16.24;44.12;94646.25;5072812;28;20212;-79
2021/05/10 04:57:37;;;;;;;2.28;1.10;;;;;;;16.29;44.01;94650.91;5072407;28;20696;-79
2021/05/10 05:00:08;;;;;;;1.27;1.17;;;;;;;16.31;43.85;94646.25;5055090;28;20280;-79
2021/05/10 05:02:33;;;;;;;1.95;1.45;;;;;;;16.24;44.08;94655.94;5054722;28;20603;-80
2021/05/10 05:04:58;;;;;;;3.25;1.38;;;;;;;16.24;43.96;94650.69;5059463;28;20204;-78
2021/05/10 05:07:24;;;;;;;3.28;1.50;;;;;;;16.26;44.52;94648.69;5055989;28;20229;-80
2021/05/10 05:09:49;;;;;;;2.28;1.70;;;;;;;16.24;44.18;94653.31;5055644;28;20173;-80
2021/05/10 05:12:14;;;;;;;4.03;1.50;;;;;;;16.20;44.83;94659.97;5072113;28;20193;-80
2021/05/10 05:14:40;;;;;;;2.05;1.40;;;;;;;16.21;44.47;94664.22;5073294;28;20192;-79
2021/05/10 05:17:05;;;;;;;1.92;1.40;;;;;;;16.25;44.37;94662.78;5070238;28;20173;-80
2021/05/10 05:19:31;;;;;;;3.67;1.80;;;;;;;16.29;44.04;94658.75;5054468;28;20185;-79
2021/05/10 05:21:56;;;;;;;5.57;2.30;;;;;;;16.26;43.95;94670.47;5041775;28;20536;-79
2021/05/10 05:24:22;;;;;;;2.53;1.65;;;;;;;16.23;43.88;94672.66;5071895;28;20176;-79
2021/05/10 05:26:47;;;;;;;3.15;1.60;;;;;;;16.26;44.12;94688.00;5076277;28;20212;-79
2021/05/10 05:29:12;;;;;;;2.53;1.30;;;;;;;16.28;44.40;94683.34;5075828;28;20647;-79
2021/05/10 05:31:38;;;;;;;3.08;1.50;;;;;;;16.27;43.58;94702.69;5075235;28;20193;-80
2021/05/10 05:34:03;;;;;;;1.83;1.40;;;;;;;16.20;44.05;94701.91;5075505;28;20191;-80
2021/05/10 05:36:29;;;;;;;5.18;1.38;;;;;;;16.26;43.80;94719.44;5058600;28;20655;-79
2021/05/10 05:38:54;;;;;;;1.85;1.50;;;;;;;16.27;44.03;94755.91;5058481;28;20238;-80
2021/05/10 05:41:20;;;;;;;1.52;1.42;;;;;;;16.28;45.41;94780.28;5074841;28;20547;-80
2021/05/10 05:43:45;;;;;;;2.33;1.30;;;;;;;16.17;45.20;94775.63;5074661;28;20246;-79
2021/05/10 05:46:15;;;;;;;1.60;1.30;;;;;;;16.18;44.64;94785.13;5074679;28;20173;-77
2021/05/10 05:48:40;;;;;;;3.88;1.48;;;;;;;16.15;45.70;94791.53;5074458;28;20259;-77
2021/05/10 05:51:08;;;;;;;2.55;1.55;;;;;;;16.06;46.39;94790.13;5073382;28;20292;-77
2021/05/10 05:53:33;;;;;;;3.42;1.65;;;;;;;16.10;46.66;94786.91;5074228;28;20166;-77
2021/05/10 05:55:59;;;;;;;3.28;1.65;;;;;;;16.12;46.97;94784.91;5073845;28;20201;-78
2021/05/10 05:58:25;;;;;;;3.88;1.40;;;;;;;16.26;47.32;94803.25;5057071;28;20181;-78
2021/05/10 06:00:52;;;;;;;4.55;1.80;;;;;;;16.41;47.09;94809.09;5073616;28;20207;-77
2021/05/10 06:03:18;;;;;;;2.90;1.50;;;;;;;16.59;47.54;94808.47;5074040;28;20574;-77
2021/05/10 06:05:43;;;;;;;2.53;1.50;;;;;;;16.85;47.31;94812.94;5060303;28;20183;-77
2021/05/10 06:08:08;;;;;;;2.08;1.48;;;;;;;17.31;46.69;94822.50;5073773;28;20203;-77
2021/05/10 06:10:34;;;;;;;2.65;1.65;;;;;;;17.60;45.93;94822.03;5073477;28;20178;-76
2021/05/10 06:12:59;;;;;;;4.20;1.67;;;;;;;17.71;46.07;94810.91;5075376;28;20205;-78
2021/05/10 06:15:24;;;;;;;2.75;1.50;;;;;;;17.67;45.83;94793.09;5056562;28;20236;-76
2021/05/10 06:17:50;;;;;;;4.88;1.55;;;;;;;17.83;45.99;94795.28;5056844;28;20551;-77
2021/05/10 06:20:17;;;;;;;2.97;1.70;;;;;;;18.04;45.48;94800.22;5073530;28;20169;-76
2021/05/10 06:22:43;;;;;;;6.55;2.00;;;;;;;18.23;45.21;94793.22;5056724;28;20196;-76
2021/05/10 06:25:13;;;;;;;2.85;1.60;;;;;;;18.27;45.48;94783.06;5073552;28;20169;-77
2021/05/10 06:27:39;;;;;;;2.95;2.03;;;;;;;18.37;45.48;94784.19;5056759;28;20193;-77
2021/05/10 06:30:09;;;;;;;2.20;1.70;;;;;;;18.24;45.59;94784.31;5057005;28;20314;-77
2021/05/10 06:32:35;;;;;;;4.68;1.63;;;;;;;18.21;46.13;94784.75;5056450;28;20201;-78
2021/05/10 06:35:00;;;;;;;3.03;1.77;;;;;;;18.19;45.92;94784.13;5057028;28;20212;-78
2021/05/10 06:37:29;;;;;;;2.30;1.58;;;;;;;18.56;46.04;94795.59;5074214;28;20170;-77
2021/05/10 06:39:55;;;;;;;4.35;1.90;;;;;;;18.60;45.56;94774.94;5073521;28;20177;-78
2021/05/10 06:42:20;;;;;;;3.80;1.60;;;;;;;18.83;45.29;94798.84;5072881;28;20189;-77
2021/05/10 06:44:46;;;;;;;3.30;1.50;;;;;;;18.79;45.56;94787.13;5073414;28;20265;-77
2021/05/10 06:47:11;;;;;;;5.20;1.90;;;;;;;18.59;45.62;94794.34;5074410;28;20174;-78
2021/05/10 06:49:36;;;;;;;4.07;2.00;;;;;;;18.50;46.04;94793.81;5056476;28;20840;-77
2021/05/10 06:52:02;;;;;;;2.83;1.70;;;;;;;18.45;46.19;94780.50;5055736;28;20719;-77
2021/05/10 06:54:27;;;;;;;3.42;1.90;;;;;;;18.37;46.83;94804.41;5072788;28;20240;-77
2021/05/10 06:56:53;;;;;;;2.17;1.50;;;;;;;18.25;47.20;94808.75;5056323;28;20177;-77
2021/05/10 06:59:19;;;;;;;4.78;1.73;;;;;;;18.16;47.43;94823.97;5056196;28;20757;-77
2021/05/10 07:01:44;;;;;;;2.30;2.00;;;;;;;18.29;47.27;94838.88;5072674;28;20614;-77
2021/05/10 07:04:09;;;;;;;1.98;1.80;;;;;;;18.55;47.03;94853.63;5073128;28;20659;-77
2021/05/10 07:06:35;;;;;;;2.63;1.58;;;;;;;19.18;45.88;94861.44;5073135;28;20173;-77
2021/05/10 07:09:00;;;;;;;2.53;1.70;;;;;;;19.12;45.61;94876.28;5072708;28;20185;-76
2021/05/10 07:11:25;;;;;;;4.00;1.73;;;;;;;19.21;45.52;94885.50;5072746;28;20193;-78
2021/05/10 07:13:51;;;;;;;2.92;1.60;;;;;;;18.89;46.33;94895.28;5074327;28;20172;-78
2021/05/10 07:16:16;;;;;;;1.75;1.65;;;;;;;18.85;46.43;94893.31;5055814;28;20212;-77
2021/05/10 07:18:41;;;;;;;8.57;2.03;;;;;;;18.60;46.43;94886.16;5055764;28;20181;-78
2021/05/10 07:21:07;;;;;;;2.03;1.60;;;;;;;18.48;46.91;94884.44;5055784;28;20208;-78
2021/05/10 07:23:34;;;;;;;4.03;1.75;;;;;;;18.52;46.88;94883.00;5056163;28;20173;-78
2021/05/10 07:26:00;;;;;;;4.68;1.90;;;;;;;18.75;46.87;94879.84;5074425;28;20208;-78
2021/05/10 07:28:25;;;;;;;3.35;2.10;;;;;;;18.84;46.53;94879.34;5056924;28;20197;-78
2021/05/10 07:30:50;;;;;;;1.85;1.70;;;;;;;18.99;45.88;94875.56;5073837;28;20224;-80
2021/05/10 07:33:16;;;;;;;3.50;1.70;;;;;;;19.93;44.04;94872.59;5056234;28;20173;-81
2021/05/10 07:35:41;;;;;;;4.30;1.85;;;;;;;20.36;42.90;94875.06;5056059;28;20205;-80
2021/05/10 07:38:07;;;;;;;2.53;1.70;;;;;;;20.55;42.89;94875.03;5056487;28;20172;-80
2021/05/10 07:40:33;;;;;;;4.20;1.95;;;;;;;20.86;41.73;94885.31;5055883;28;20260;-80
2021/05/10 07:42:59;;;;;;;4.55;1.92;;;;;;;21.20;40.35;94880.28;5074752;28;20175;-80
2021/05/10 07:45:25;;;;;;;3.55;1.98;;;;;;;20.59;41.51;94882.28;5075240;28;20169;-81
2021/05/10 07:47:54;;;;;;;2.65;1.67;;;;;;;20.07;42.88;94870.59;5072274;28;20181;-81
2021/05/10 07:50:20;;;;;;;2.75;1.65;;;;;;;19.67;43.92;94857.09;5073709;28;20173;-81
2021/05/10 07:52:46;;;;;;;3.63;1.90;;;;;;;20.07;43.53;94868.78;5055882;28;20652;-82
2021/05/10 07:55:11;;;;;;;3.83;1.60;;;;;;;20.05;43.08;94881.38;5055714;28;20236;-83
2021/05/10 07:57:37;;;;;;;1.88;1.60;;;;;;;20.51;42.51;94890.50;5055743;28;20200;-81
2021/05/10 08:00:07;;;;;;;3.95;1.88;;;;;;;21.02;41.77;94883.03;5055673;28;20211;-80
2021/05/10 08:02:33;;;;;;;4.45;1.58;;;;;;;21.07;41.05;94883.16;5055788;28;20200;-81
2021/05/10 08:04:58;;;;;;;3.83;1.70;;;;;;;21.21;41.03;94890.63;5072419;28;20169;-80
2021/05/10 08:07:24;;;;;;;4.93;1.70;;;;;;;21.30;40.75;94870.00;5055614;28;20188;-80
2021/05/10 08:09:49;;;;;;;4.60;1.80;;;;;;;21.16;41.14;94876.50;5056055;28;20177;-80
2021/05/10 08:12:15;;;;;;;3.55;1.40;;;;;;;21.10;42.03;94880.84;5072512;28;20288;-79
2021/05/10 08:14:40;;;;;;;3.00;1.90;;;;;;;20.78;42.05;94879.56;5056211;28;20207;-80
2021/05/10 08:17:06;;;;;;;2.80;1.65;;;;;;;21.02;41.92;94878.53;5072791;28;20199;-81
2021/05/10 08:19:31;;;;;;;6.22;1.92;;;;;;;20.88;41.92;94885.88;5056288;28;20177;-81
2021/05/10 08:22:00;;;;;;;2.55;1.60;;;;;;;20.62;42.25;94886.28;5071861;28;20195;-81
2021/05/10 08:24:26;;;;;;;3.10;1.73;;;;;;;20.38;43.23;94899.38;5054960;28;20169;-81
2021/05/10 08:26:51;;;;;;;5.82;2.00;;;;;;;20.00;43.96;94907.56;5055831;28;20184;-82
2021/05/10 08:29:17;;;;;;;6.55;2.03;;;;;;;19.49;45.62;94908.72;5051588;28;20711;-80
2021/05/10 08:31:45;;;;;;;3.08;1.90;;;;;;;19.29;46.41;94916.00;5039122;28;20205;-81
2021/05/10 08:34:11;;;;;;;2.58;1.80;;;;;;;18.78;47.18;94924.09;5052490;28;20183;-80
2021/05/10 08:36:36;;;;;;;3.58;2.00;;;;;;;18.42;48.12;94929.97;5050870;28;20170;-81
2021/05/10 08:39:04;;;;;;;4.82;1.83;;;;;;;18.34;49.02;94941.53;5050606;28;20263;-81
2021/05/10 08:41:29;;;;;;;5.03;2.15;;;;;;;18.39;49.22;94945.16;5033447;28;20229;-78
2021/05/10 08:43:57;;;;;;;3.17;1.83;;;;;;;18.53;48.77;94943.25;5050828;28;20228;-80
2021/05/10 08:46:23;;;;;;;5.07;1.85;;;;;;;18.62;48.98;94944.59;5034145;28;20170;-79
2021/05/10 08:48:48;;;;;;;3.33;1.73;;;;;;;18.82;47.47;94949.78;5068884;28;20192;-81
2021/05/10 08:51:15;;;;;;;5.45;1.42;;;;;;;19.05;47.57;94943.13;5053685;28;20208;-80
2021/05/10 08:53:41;;;;;;;3.72;1.27;;;;;;;19.34;46.10;94934.56;5069868;28;20177;-80
2021/05/10 08:56:08;;;;;;;3.03;1.40;;;;;;;19.41;46.44;94929.25;5070301;28;20209;-81
2021/05/10 08:58:41;;;;;;;2.45;1.38;;;;;;;19.96;45.00;94935.38;5070421;28;20173;-80
2021/05/10 09:01:08;;;;;;;2.40;1.10;;;;;;;20.06;44.59;94933.06;5067802;28;20604;-79
2021/05/10 09:03:42;;;;;;;1.67;0.98;;;;;;;20.12;43.81;94933.19;5052220;28;20170;-81
2021/05/10 09:06:11;;;;;;;2.50;1.20;;;;;;;19.69;43.73;94949.88;5051664;28;20228;-81
2021/05/10 09:08:42;;;;;;;1.27;0.80;;;;;;;19.80;44.08;94941.25;5068744;28;20201;-80
2021/05/10 09:11:14;;;;;;;3.70;1.25;;;;;;;20.19;42.17;94939.19;5051938;28;20205;-81
2021/05/10 09:13:42;;;;;;;1.38;0.60;;;;;;;20.41;42.79;94942.97;5052203;28;20212;-80
2021/05/10 09:16:08;;;;;;;1.08;0.70;;;;;;;20.39;41.79;94945.00;5053620;28;20288;-80
2021/05/10 09:18:33;;;;;;;1.48;0.80;;;;;;;20.57;41.52;94941.53;5051907;28;20174;-81
2021/05/10 09:21:17;;;;;;;3.33;0.63;;;;;;;20.42;41.03;94951.69;5051760;28;20204;-80
2021/05/10 09:23:42;;;;;;;1.38;0.70;;;;;;;20.07;42.01;94952.31;5035232;28;20188;-79
2021/05/10 09:26:08;;;;;;;2.25;0.90;;;;;;;19.58;42.47;94951.41;5034394;28;20261;-81
2021/05/10 09:28:41;;;;;;;1.38;0.60;;;;;;;19.33;43.00;94954.03;5051303;28;20181;-79
2021/05/10 09:31:12;;;;;;;1.33;0.77;;;;;;;19.00;44.07;94951.69;5050840;28;20186;-81
2021/05/10 09:33:47;;;;;;;3.05;0.70;;;;;;;19.10;43.41;94952.00;5034919;28;20177;-81
2021/05/10 09:36:33;;;;;;;0.60;0.60;;;;;;;18.86;44.20;94966.75;5035189;28;20280;-81
2021/05/10 09:39:00;;;;;;;1.35;0.60;;;;;;;18.61;45.63;94968.47;5035035;28;20185;-81
2021/05/10 09:41:26;;;;;;;0.75;0.60;;;;;;;18.35;45.49;94959.72;5034761;28;20596;-81
2021/05/10 09:44:06;;;;;;;3.03;1.02;;;;;;;19.06;44.53;94955.25;5051070;28;20243;-79
2021/05/10 09:46:41;;;;;;;0.88;0.77;;;;;;;19.67;44.42;94978.25;5034805;28;20219;-79
2021/05/10 09:49:08;;;;;;;1.38;0.93;;;;;;;19.79;43.02;94977.34;5052835;28;20169;-80
2021/05/10 09:51:33;;;;;;;1.08;0.98;;;;;;;20.18;42.61;94974.47;5051317;28;20306;-79
2021/05/10 09:54:00;;;;;;;0.98;0.70;;;;;;;20.52;43.42;94973.88;5034218;28;20631;-79
2021/05/10 09:58:56;;;;;;;1.00;0.80;;;;;;;20.66;41.90;94977.13;5051898;28;20193;-78
2021/05/10 10:01:23;;;;;;;2.42;0.88;;;;;;;20.54;41.51;94974.47;5033848;28;20190;-79
2021/05/10 10:04:01;;;;;;;1.73;1.00;;;;;;;20.13;43.20;94975.13;5050983;28;20173;-78
2021/05/10 10:06:29;;;;;;;1.00;0.90;;;;;;;20.30;43.35;94972.69;5034503;28;20240;-78
2021/05/10 10:08:56;;;;;;;1.27;1.00;;;;;;;20.45;42.29;94983.69;5034700;28;20182;-79
2021/05/10 10:11:23;;;;;;;1.52;1.00;;;;;;;20.62;42.16;94987.34;5034363;28;20190;-79
2021/05/10 10:13:50;;;;;;;1.33;0.88;;;;;;;20.80;42.61;94997.03;5055784;28;20269;-78
2021/05/10 10:16:17;;;;;;;3.35;1.08;;;;;;;20.42;43.44;94996.50;5054782;28;20284;-79
2021/05/10 10:18:42;;;;;;;2.25;1.02;;;;;;;20.62;42.64;95003.16;5054797;28;20170;-79
2021/05/10 10:21:13;;;;;;;2.28;1.10;;;;;;;20.57;42.37;95003.00;5037602;28;20236;-79
2021/05/10 10:23:39;;;;;;;1.48;0.80;;;;;;;20.34;42.90;95014.25;5055064;28;20576;-80
2021/05/10 10:26:06;;;;;;;2.72;0.80;;;;;;;20.21;43.16;95022.28;5054832;28;20174;-77
2021/05/10 10:28:33;;;;;;;2.35;0.80;;;;;;;20.49;41.28;95020.97;5037920;28;20552;-79
2021/05/10 10:31:01;;;;;;;1.15;0.73;;;;;;;20.15;41.93;95022.38;5037633;28;20208;-81
2021/05/10 10:33:35;;;;;;;2.00;0.52;;;;;;;20.03;42.09;95033.63;5037562;28;20174;-81
2021/05/10 10:36:00;;;;;;;0.82;0.60;;;;;;;20.00;41.99;95041.97;5054449;28;20204;-80
2021/05/10 10:38:31;;;;;;;1.25;0.55;;;;;;;20.08;41.75;95046.97;5054381;28;20177;-81
2021/05/10 10:41:16;;;;;;;2.03;0.68;;;;;;;20.47;40.30;95046.78;5053554;28;20194;-79
2021/05/10 10:43:41;;;;;;;0.88;0.40;;;;;;;20.51;41.01;95035.56;5037325;28;20645;-79
2021/05/10 10:46:38;;;;;;;0.50;0.50;;;;;;;20.60;40.59;95049.28;5070845;28;20253;-79
2021/05/10 10:49:25;;;;;;;0.60;0.60;;;;;;;20.46;40.31;95039.88;4973698;28;20185;-80
2021/05/10 10:51:51;;;;;;;0.68;0.50;;;;;;;20.79;39.51;95039.50;4973523;28;20208;-81
2021/05/10 10:54:21;;;;;;;1.10;0.68;;;;;;;20.49;40.37;95042.88;4957780;28;20188;-80
2021/05/10 10:56:50;;;;;;;1.23;0.47;;;;;;;20.57;40.10;95039.94;4957759;28;20177;-80
2021/05/10 10:59:34;;;;;;;1.17;0.57;;;;;;;20.30;41.13;95041.25;4941118;28;20271;-80
2021/05/10 11:02:24;;;;;;;1.52;0.63;;;;;;;20.31;40.82;95030.47;4942002;28;20200;-79
2021/05/10 11:05:19;;;;;;;0.60;0.60;;;;;;;20.31;41.71;95040.22;4942262;28;20594;-80
2021/05/10 11:07:52;;;;;;;1.02;0.63;;;;;;;19.95;41.15;95054.19;4957576;28;20216;-80
2021/05/10 11:10:40;;;;;;;0.50;0.50;;;;;;;19.22;42.41;95065.28;4957070;28;20185;-79
2021/05/10 11:13:07;;;;;;;1.50;0.50;;;;;;;19.13;43.25;95061.28;4957180;28;20192;-80
2021/05/10 11:15:32;;;;;;;1.65;0.50;;;;;;;19.11;44.49;95072.03;4958038;28;20204;-80
2021/05/10 11:17:58;;;;;;;1.00;0.70;;;;;;;19.17;44.54;95073.84;4957082;28;20714;-80
2021/05/10 11:20:37;;;;;;;1.55;0.77;;;;;;;18.82;45.01;95081.31;4957018;28;20744;-79
2021/05/10 11:23:23;;;;;;;0.45;0.45;;;;;;;19.01;44.85;95090.13;4940613;28;20184;-80
2021/05/10 11:25:50;;;;;;;2.05;0.70;;;;;;;19.20;44.25;95088.38;5026342;28;20182;-80
2021/05/10 11:28:24;;;;;;;0.70;0.50;;;;;;;19.15;44.75;95088.19;5036214;28;20185;-80
2021/05/10 11:30:59;;;;;;;3.15;0.93;;;;;;;19.06;45.19;95103.44;5052769;28;20197;-79
2021/05/10 11:36:31;;;;;;;2.47;0.73;;;;;;;18.63;46.14;95087.41;5054013;28;20210;-80
2021/05/10 11:39:02;;;;;;;1.02;0.70;;;;;;;18.48;46.52;95087.69;5053061;28;20256;-79
2021/05/10 11:41:44;;;;;;;2.33;0.60;;;;;;;18.20;46.26;95080.09;5043202;28;20208;-79
2021/05/10 11:44:18;;;;;;;1.25;0.75;;;;;;;18.18;47.33;95087.34;5046451;28;20257;-79
2021/05/10 11:46:47;;;;;;;0.68;0.63;;;;;;;18.18;47.04;95086.53;5045659;28;20181;-79
2021/05/10 11:49:29;;;;;;;0.60;0.60;;;;;;;18.16;48.10;95073.63;5044928;28;20174;-81